Weather at Kirkwall Airport

Public forecast

Using degrees Celsius for public forecast. Weather courtesy of forecast.io.

Current aviation weather report (METAR) for Kirkwall Airport

Retrieved 2021/10/21 05:20 UTC (17 minutes ago):

EGPA 210520Z AUTO 34028G38KT 9999 NCD 07/00 Q0998

Closest aviation forecast (TAF) to Kirkwall Airport

Closest forecast is RAF Lossiemouth, 76.4 nm (141.6 km) S. Retrieved 2021-10-21 03:45 UTC (2 hours ago):

TAF EGQS 210138Z 2103/2121 34018KT 9999 SCT030 PROB40 TEMPO 2103/2107 35022G36KT 3000 SHRA +SHGS SCT006 BKN020CB BECMG 2107/2111 30014KT PROB30 TEMPO 2107/2118 31016G26KT 6000 SHRA SCT024 PROB40 TEMPO 2118/2121 29022G36KT 5000 SHRA BKN018